sensor_id;sensor_type;location;lat;lon;timestamp;pressure;altitude;pressure_sealevel;temperature;humidity
48200;BME280;33990;44.602;10.976;2023-03-23T00:01:09;100992.88;;;19.43;52.46
48200;BME280;33990;44.602;10.976;2023-03-23T00:03:37;100991.16;;;19.42;52.47
48200;BME280;33990;44.602;10.976;2023-03-23T00:06:03;101000.06;;;19.43;52.43
48200;BME280;33990;44.602;10.976;2023-03-23T00:08:37;100991.16;;;19.42;52.46
48200;BME280;33990;44.602;10.976;2023-03-23T00:11:19;100993.84;;;19.42;52.36
48200;BME280;33990;44.602;10.976;2023-03-23T00:13:48;100993.00;;;19.42;52.36
48200;BME280;33990;44.602;10.976;2023-03-23T00:16:23;100991.16;;;19.42;52.27
48200;BME280;33990;44.602;10.976;2023-03-23T00:19:00;100995.69;;;19.42;52.15
48200;BME280;33990;44.602;10.976;2023-03-23T00:21:31;100988.63;;;19.41;52.35
48200;BME280;33990;44.602;10.976;2023-03-23T00:24:01;100988.63;;;19.41;52.31
48200;BME280;33990;44.602;10.976;2023-03-23T00:26:28;100989.47;;;19.41;52.25
48200;BME280;33990;44.602;10.976;2023-03-23T00:28:55;100996.69;;;19.41;52.13
48200;BME280;33990;44.602;10.976;2023-03-23T00:31:22;100985.94;;;19.41;52.23
48200;BME280;33990;44.602;10.976;2023-03-23T00:33:48;100980.69;;;19.39;52.07
48200;BME280;33990;44.602;10.976;2023-03-23T00:36:14;100994.00;;;19.41;52.20
48200;BME280;33990;44.602;10.976;2023-03-23T00:38:41;100987.75;;;19.40;52.18
48200;BME280;33990;44.602;10.976;2023-03-23T00:41:12;100986.03;;;19.39;52.13
48200;BME280;33990;44.602;10.976;2023-03-23T00:43:41;100981.53;;;19.40;52.14
48200;BME280;33990;44.602;10.976;2023-03-23T00:46:07;100981.53;;;19.40;52.01
48200;BME280;33990;44.602;10.976;2023-03-23T00:48:36;100973.63;;;19.38;51.95
48200;BME280;33990;44.602;10.976;2023-03-23T00:51:11;100969.94;;;19.39;52.01
48200;BME280;33990;44.602;10.976;2023-03-23T00:53:41;100975.31;;;19.39;51.83
48200;BME280;33990;44.602;10.976;2023-03-23T00:56:08;100973.63;;;19.38;51.94
48200;BME280;33990;44.602;10.976;2023-03-23T00:58:35;100969.94;;;19.39;51.91
48200;BME280;33990;44.602;10.976;2023-03-23T01:01:02;100963.72;;;19.39;51.92
48200;BME280;33990;44.602;10.976;2023-03-23T01:03:28;100953.97;;;19.38;51.82
48200;BME280;33990;44.602;10.976;2023-03-23T01:06:04;100953.13;;;19.37;51.72
48200;BME280;33990;44.602;10.976;2023-03-23T01:08:30;100942.38;;;19.37;51.76
48200;BME280;33990;44.602;10.976;2023-03-23T01:11:03;100935.19;;;19.38;51.82
48200;BME280;33990;44.602;10.976;2023-03-23T01:13:31;100928.97;;;19.37;51.74
48200;BME280;33990;44.602;10.976;2023-03-23T01:15:57;100931.66;;;19.37;51.68
48200;BME280;33990;44.602;10.976;2023-03-23T01:18:23;100925.44;;;19.37;51.74
48200;BME280;33990;44.602;10.976;2023-03-23T01:20:50;100930.81;;;19.37;51.84
48200;BME280;33990;44.602;10.976;2023-03-23T01:23:16;100932.59;;;19.36;51.59
48200;BME280;33990;44.602;10.976;2023-03-23T01:25:42;100926.38;;;19.36;51.78
48200;BME280;33990;44.602;10.976;2023-03-23T01:28:10;100925.53;;;19.35;51.81
48200;BME280;33990;44.602;10.976;2023-03-23T01:30:37;100921.00;;;19.36;51.67
48200;BME280;33990;44.602;10.976;2023-03-23T01:33:03;100918.34;;;19.36;51.58
48200;BME280;33990;44.602;10.976;2023-03-23T01:35:30;100918.34;;;19.36;51.58
48200;BME280;33990;44.602;10.976;2023-03-23T01:37:56;100913.09;;;19.34;51.64
48200;BME280;33990;44.602;10.976;2023-03-23T01:40:23;100913.94;;;19.35;51.69
48200;BME280;33990;44.602;10.976;2023-03-23T01:42:49;100909.44;;;19.35;51.76
48200;BME280;33990;44.602;10.976;2023-03-23T01:48:13;100906.88;;;19.34;51.60
48200;BME280;33990;44.602;10.976;2023-03-23T01:51:07;100911.28;;;19.35;51.66
48200;BME280;33990;44.602;10.976;2023-03-23T01:53:40;100913.94;;;19.35;51.53
48200;BME280;33990;44.602;10.976;2023-03-23T01:56:09;100912.25;;;19.34;51.58
48200;BME280;33990;44.602;10.976;2023-03-23T01:58:38;100913.09;;;19.34;51.52
48200;BME280;33990;44.602;10.976;2023-03-23T02:01:08;100900.66;;;19.33;51.57
48200;BME280;33990;44.602;10.976;2023-03-23T02:03:38;100906.88;;;19.34;51.47
48200;BME280;33990;44.602;10.976;2023-03-23T02:06:05;100897.13;;;19.33;51.64
48200;BME280;33990;44.602;10.976;2023-03-23T02:08:38;100900.66;;;19.33;51.59
48200;BME280;33990;44.602;10.976;2023-03-23T02:11:12;100906.16;;;19.32;51.56
48200;BME280;33990;44.602;10.976;2023-03-23T02:13:40;100893.56;;;19.32;51.51
48200;BME280;33990;44.602;10.976;2023-03-23T02:18:54;100904.31;;;19.32;51.47
48200;BME280;33990;44.602;10.976;2023-03-23T02:22:17;100898.09;;;19.32;51.38
48200;BME280;33990;44.602;10.976;2023-03-23T02:27:17;100899.94;;;19.31;51.42
48200;BME280;33990;44.602;10.976;2023-03-23T02:35:39;100902.63;;;19.31;51.35
48200;BME280;33990;44.602;10.976;2023-03-23T02:38:15;100905.31;;;19.31;51.36
48200;BME280;33990;44.602;10.976;2023-03-23T02:40:46;100911.53;;;19.32;51.52
48200;BME280;33990;44.602;10.976;2023-03-23T02:43:23;100903.59;;;19.30;51.51
48200;BME280;33990;44.602;10.976;2023-03-23T02:45:52;100906.16;;;19.32;51.51
48200;BME280;33990;44.602;10.976;2023-03-23T02:48:22;100911.53;;;19.32;51.82
48200;BME280;33990;44.602;10.976;2023-03-23T02:50:51;100911.53;;;19.32;51.79
48200;BME280;33990;44.602;10.976;2023-03-23T02:53:21;100909.69;;;19.32;51.81
48200;BME280;33990;44.602;10.976;2023-03-23T02:55:53;100905.31;;;19.31;51.62
48200;BME280;33990;44.602;10.976;2023-03-23T02:58:23;100914.22;;;19.32;51.64
48200;BME280;33990;44.602;10.976;2023-03-23T03:00:51;100923.09;;;19.32;51.48
48200;BME280;33990;44.602;10.976;2023-03-23T03:03:22;100916.03;;;19.31;51.57
48200;BME280;33990;44.602;10.976;2023-03-23T03:06:10;100914.22;;;19.32;51.70
48200;BME280;33990;44.602;10.976;2023-03-23T03:11:26;100912.50;;;19.31;51.72
48200;BME280;33990;44.602;10.976;2023-03-23T03:13:58;100906.16;;;19.32;51.90
48200;BME280;33990;44.602;10.976;2023-03-23T03:16:30;100913.34;;;19.31;51.67
48200;BME280;33990;44.602;10.976;2023-03-23T03:19:11;100906.16;;;19.32;51.68
48200;BME280;33990;44.602;10.976;2023-03-23T03:21:42;100912.50;;;19.31;51.52
48200;BME280;33990;44.602;10.976;2023-03-23T03:24:13;100903.59;;;19.30;51.49
48200;BME280;33990;44.602;10.976;2023-03-23T03:26:45;100901.78;;;19.31;51.47
48200;BME280;33990;44.602;10.976;2023-03-23T03:29:44;100899.09;;;19.31;51.51
48200;BME280;33990;44.602;10.976;2023-03-23T03:32:15;100903.59;;;19.30;51.48
48200;BME280;33990;44.602;10.976;2023-03-23T03:34:44;100911.66;;;19.30;51.52
48200;BME280;33990;44.602;10.976;2023-03-23T03:37:11;100912.50;;;19.31;51.28
48200;BME280;33990;44.602;10.976;2023-03-23T03:39:39;100917.88;;;19.31;51.38
48200;BME280;33990;44.602;10.976;2023-03-23T03:42:05;100921.56;;;19.30;51.41
48200;BME280;33990;44.602;10.976;2023-03-23T03:44:33;100926.06;;;19.29;51.12
48200;BME280;33990;44.602;10.976;2023-03-23T03:46:59;100918.97;;;19.28;51.42
48200;BME280;33990;44.602;10.976;2023-03-23T03:49:26;100926.06;;;19.29;51.24
48200;BME280;33990;44.602;10.976;2023-03-23T03:51:54;100919.84;;;19.29;51.19
48200;BME280;33990;44.602;10.976;2023-03-23T03:54:40;100919.84;;;19.29;51.25
48200;BME280;33990;44.602;10.976;2023-03-23T03:57:07;100927.91;;;19.29;51.18
48200;BME280;33990;44.602;10.976;2023-03-23T03:59:54;100914.50;;;19.29;51.06
48200;BME280;33990;44.602;10.976;2023-03-23T04:02:38;100913.59;;;19.28;51.14
48200;BME280;33990;44.602;10.976;2023-03-23T04:05:05;100918.13;;;19.27;51.07
48200;BME280;33990;44.602;10.976;2023-03-23T04:07:33;100921.66;;;19.28;50.99
48200;BME280;33990;44.602;10.976;2023-03-23T04:09:59;100921.66;;;19.28;51.03
48200;BME280;33990;44.602;10.976;2023-03-23T04:12:25;100929.72;;;19.28;50.98
48200;BME280;33990;44.602;10.976;2023-03-23T04:14:57;100926.19;;;19.27;51.25
48200;BME280;33990;44.602;10.976;2023-03-23T04:17:32;100931.56;;;19.27;50.93
48200;BME280;33990;44.602;10.976;2023-03-23T04:19:58;100928.88;;;19.27;50.97
48200;BME280;33990;44.602;10.976;2023-03-23T04:22:32;100937.91;;;19.26;50.81
48200;BME280;33990;44.602;10.976;2023-03-23T04:25:01;100943.28;;;19.26;50.94
48200;BME280;33990;44.602;10.976;2023-03-23T04:27:32;100941.44;;;19.27;50.98
48200;BME280;33990;44.602;10.976;2023-03-23T04:30:01;100944.13;;;19.27;50.81
48200;BME280;33990;44.602;10.976;2023-03-23T04:32:45;100945.97;;;19.26;50.78
48200;BME280;33990;44.602;10.976;2023-03-23T04:35:17;100949.50;;;19.27;50.80
48200;BME280;33990;44.602;10.976;2023-03-23T04:37:49;100946.94;;;19.25;50.81
48200;BME280;33990;44.602;10.976;2023-03-23T04:40:19;100952.31;;;19.25;50.81
48200;BME280;33990;44.602;10.976;2023-03-23T04:42:56;100952.31;;;19.25;50.71
48200;BME280;33990;44.602;10.976;2023-03-23T04:45:46;100957.69;;;19.25;50.58
48200;BME280;33990;44.602;10.976;2023-03-23T04:48:13;100955.00;;;19.25;50.71
48200;BME280;33990;44.602;10.976;2023-03-23T04:50:55;100957.69;;;19.25;50.47
48200;BME280;33990;44.602;10.976;2023-03-23T04:53:28;100958.69;;;19.24;50.70
48200;BME280;33990;44.602;10.976;2023-03-23T04:55:55;100958.69;;;19.24;50.68
48200;BME280;33990;44.602;10.976;2023-03-23T04:58:22;100962.22;;;19.25;50.63
48200;BME280;33990;44.602;10.976;2023-03-23T05:01:19;100955.09;;;19.24;50.73
48200;BME280;33990;44.602;10.976;2023-03-23T05:04:01;100960.47;;;19.24;50.67
48200;BME280;33990;44.602;10.976;2023-03-23T05:06:30;100961.34;;;19.24;50.62
48200;BME280;33990;44.602;10.976;2023-03-23T05:09:02;100965.84;;;19.24;50.67
48200;BME280;33990;44.602;10.976;2023-03-23T05:11:30;100960.47;;;19.24;50.71
48200;BME280;33990;44.602;10.976;2023-03-23T05:13:57;100965.84;;;19.24;50.50
48200;BME280;33990;44.602;10.976;2023-03-23T05:16:23;100965.00;;;19.23;50.59
48200;BME280;33990;44.602;10.976;2023-03-23T05:18:49;100972.19;;;19.23;50.45
48200;BME280;33990;44.602;10.976;2023-03-23T05:21:17;100972.19;;;19.23;50.42
48200;BME280;33990;44.602;10.976;2023-03-23T05:23:49;100973.03;;;19.23;50.62
48200;BME280;33990;44.602;10.976;2023-03-23T05:26:23;100981.09;;;19.23;50.43
48200;BME280;33990;44.602;10.976;2023-03-23T05:28:59;100977.56;;;19.23;50.50
48200;BME280;33990;44.602;10.976;2023-03-23T05:31:38;100985.63;;;19.23;50.41
48200;BME280;33990;44.602;10.976;2023-03-23T05:34:06;100989.16;;;19.23;50.50
48200;BME280;33990;44.602;10.976;2023-03-23T05:36:47;100990.13;;;19.22;50.39
48200;BME280;33990;44.602;10.976;2023-03-23T05:39:32;100996.50;;;19.21;50.34
48200;BME280;33990;44.602;10.976;2023-03-23T05:42:31;101004.56;;;19.21;50.46
48200;BME280;33990;44.602;10.976;2023-03-23T05:45:18;101000.03;;;19.22;50.41
48200;BME280;33990;44.602;10.976;2023-03-23T05:47:47;101004.56;;;19.21;50.48
48200;BME280;33990;44.602;10.976;2023-03-23T05:50:19;101015.28;;;19.21;50.45
48200;BME280;33990;44.602;10.976;2023-03-23T05:52:45;101004.56;;;19.21;50.49
48200;BME280;33990;44.602;10.976;2023-03-23T05:55:13;101005.53;;;19.20;50.52
48200;BME280;33990;44.602;10.976;2023-03-23T05:57:46;101000.16;;;19.20;50.42
48200;BME280;33990;44.602;10.976;2023-03-23T06:00:26;101001.97;;;19.20;50.48
48200;BME280;33990;44.602;10.976;2023-03-23T06:03:05;101006.50;;;19.19;50.65
48200;BME280;33990;44.602;10.976;2023-03-23T06:05:43;101009.06;;;19.21;50.41
48200;BME280;33990;44.602;10.976;2023-03-23T06:08:11;101019.81;;;19.21;50.44
48200;BME280;33990;44.602;10.976;2023-03-23T06:10:38;101010.03;;;19.20;50.38
48200;BME280;33990;44.602;10.976;2023-03-23T06:13:05;101018.06;;;19.20;50.42
48200;BME280;33990;44.602;10.976;2023-03-23T06:15:57;101023.44;;;19.20;50.36
48200;BME280;33990;44.602;10.976;2023-03-23T06:18:42;101019.81;;;19.21;50.19
48200;BME280;33990;44.602;10.976;2023-03-23T06:21:17;101026.03;;;19.21;50.48
48200;BME280;33990;44.602;10.976;2023-03-23T06:23:56;101035.91;;;19.21;50.54
48200;BME280;33990;44.602;10.976;2023-03-23T06:26:30;101031.38;;;19.21;50.44
48200;BME280;33990;44.602;10.976;2023-03-23T06:29:00;101035.91;;;19.21;50.25
48200;BME280;33990;44.602;10.976;2023-03-23T06:31:33;101040.44;;;19.20;50.26
48200;BME280;33990;44.602;10.976;2023-03-23T06:34:02;101042.13;;;19.21;50.25
48200;BME280;33990;44.602;10.976;2023-03-23T06:36:49;101047.50;;;19.21;50.43
48200;BME280;33990;44.602;10.976;2023-03-23T06:39:19;101049.31;;;19.21;50.20
48200;BME280;33990;44.602;10.976;2023-03-23T06:42:04;101044.81;;;19.21;50.39
48200;BME280;33990;44.602;10.976;2023-03-23T06:44:35;101044.81;;;19.21;50.07
48200;BME280;33990;44.602;10.976;2023-03-23T06:47:01;101048.47;;;19.20;50.34
48200;BME280;33990;44.602;10.976;2023-03-23T06:49:35;101058.22;;;19.21;50.23
48200;BME280;33990;44.602;10.976;2023-03-23T06:52:11;101057.25;;;19.22;50.21
48200;BME280;33990;44.602;10.976;2023-03-23T06:54:38;101054.56;;;19.22;50.15
48200;BME280;33990;44.602;10.976;2023-03-23T06:57:06;101059.06;;;19.22;50.23
48200;BME280;33990;44.602;10.976;2023-03-23T06:59:32;101058.22;;;19.21;50.51
48200;BME280;33990;44.602;10.976;2023-03-23T07:02:01;101059.06;;;19.22;50.51
48200;BME280;33990;44.602;10.976;2023-03-23T07:04:27;101060.78;;;19.23;50.39
48200;BME280;33990;44.602;10.976;2023-03-23T07:07:02;101051.88;;;19.22;50.42
48200;BME280;33990;44.602;10.976;2023-03-23T07:09:32;101055.41;;;19.23;50.38
48200;BME280;33990;44.602;10.976;2023-03-23T07:11:58;101059.06;;;19.22;50.38
48200;BME280;33990;44.602;10.976;2023-03-23T07:14:33;101060.78;;;19.23;50.36
48200;BME280;33990;44.602;10.976;2023-03-23T07:16:59;101060.78;;;19.23;50.25
48200;BME280;33990;44.602;10.976;2023-03-23T07:19:27;101054.56;;;19.22;50.42
48200;BME280;33990;44.602;10.976;2023-03-23T07:21:53;101057.25;;;19.22;50.47
48200;BME280;33990;44.602;10.976;2023-03-23T07:24:22;101061.63;;;19.23;50.67
48200;BME280;33990;44.602;10.976;2023-03-23T07:27:20;101056.25;;;19.23;50.71
48200;BME280;33990;44.602;10.976;2023-03-23T07:29:48;101057.97;;;19.24;50.56
48200;BME280;33990;44.602;10.976;2023-03-23T07:32:21;101056.16;;;19.25;50.54
48200;BME280;33990;44.602;10.976;2023-03-23T07:34:48;101063.47;;;19.23;50.52
48200;BME280;33990;44.602;10.976;2023-03-23T07:37:24;101062.38;;;19.25;50.49
48200;BME280;33990;44.602;10.976;2023-03-23T07:39:51;101058.94;;;19.23;50.25
48200;BME280;33990;44.602;10.976;2023-03-23T07:42:18;101059.69;;;19.25;50.45
48200;BME280;33990;44.602;10.976;2023-03-23T07:44:52;101065.06;;;19.25;50.20
48200;BME280;33990;44.602;10.976;2023-03-23T07:47:18;101066.88;;;19.25;50.51
48200;BME280;33990;44.602;10.976;2023-03-23T07:49:47;101068.59;;;19.26;50.52
48200;BME280;33990;44.602;10.976;2023-03-23T07:52:27;101056.84;;;19.27;50.18
48200;BME280;33990;44.602;10.976;2023-03-23T07:54:54;101062.22;;;19.27;48.94
48200;BME280;33990;44.602;10.976;2023-03-23T07:57:31;101061.38;;;19.26;47.78
48200;BME280;33990;44.602;10.976;2023-03-23T07:59:59;101071.25;;;19.26;48.30
48200;BME280;33990;44.602;10.976;2023-03-23T08:02:26;101063.94;;;19.28;48.46
48200;BME280;33990;44.602;10.976;2023-03-23T08:05:26;101057.59;;;19.29;48.34
48200;BME280;33990;44.602;10.976;2023-03-23T08:08:19;101058.22;;;19.33;48.49
48200;BME280;33990;44.602;10.976;2023-03-23T08:11:04;101055.38;;;19.34;47.89
48200;BME280;33990;44.602;10.976;2023-03-23T08:14:01;101058.91;;;19.35;47.70
48200;BME280;33990;44.602;10.976;2023-03-23T08:16:37;101059.66;;;19.37;47.42
48200;BME280;33990;44.602;10.976;2023-03-23T08:19:23;101056.97;;;19.37;47.65
48200;BME280;33990;44.602;10.976;2023-03-23T08:22:19;101059.38;;;19.40;47.05
48200;BME280;33990;44.602;10.976;2023-03-23T08:25:07;101065.59;;;19.40;47.61
48200;BME280;33990;44.602;10.976;2023-03-23T08:27:54;101060.13;;;19.42;47.40
48200;BME280;33990;44.602;10.976;2023-03-23T08:30:40;101068.03;;;19.43;48.24
48200;BME280;33990;44.602;10.976;2023-03-23T08:33:17;101060.13;;;19.42;48.24
48200;BME280;33990;44.602;10.976;2023-03-23T08:35:58;101062.66;;;19.43;47.61
48200;BME280;33990;44.602;10.976;2023-03-23T08:38:44;101066.19;;;19.44;46.80
48200;BME280;33990;44.602;10.976;2023-03-23T08:41:41;101057.28;;;19.43;46.51
48200;BME280;33990;44.602;10.976;2023-03-23T08:44:22;101055.47;;;19.44;46.13
48200;BME280;33990;44.602;10.976;2023-03-23T08:47:10;101053.63;;;19.44;45.89
48200;BME280;33990;44.602;10.976;2023-03-23T08:49:56;101059.00;;;19.44;45.82
48200;BME280;33990;44.602;10.976;2023-03-23T08:52:43;101060.72;;;19.45;46.29
48200;BME280;33990;44.602;10.976;2023-03-23T08:55:38;101059.75;;;19.46;46.30
48200;BME280;33990;44.602;10.976;2023-03-23T08:58:14;101063.28;;;19.47;46.23
48200;BME280;33990;44.602;10.976;2023-03-23T09:01:07;101067.66;;;19.48;45.75
48200;BME280;33990;44.602;10.976;2023-03-23T09:03:51;101075.59;;;19.49;46.26
48200;BME280;33990;44.602;10.976;2023-03-23T09:06:25;101067.41;;;19.51;47.50
48200;BME280;33990;44.602;10.976;2023-03-23T09:08:53;101076.22;;;19.53;48.34
48200;BME280;33990;44.602;10.976;2023-03-23T09:11:21;101077.91;;;19.54;48.58
48200;BME280;33990;44.602;10.976;2023-03-23T09:13:48;101070.69;;;19.55;48.57
48200;BME280;33990;44.602;10.976;2023-03-23T09:16:14;101071.53;;;19.55;48.72
48200;BME280;33990;44.602;10.976;2023-03-23T09:18:40;101079.47;;;19.57;48.69
48200;BME280;33990;44.602;10.976;2023-03-23T09:21:06;101073.13;;;19.58;48.92
48200;BME280;33990;44.602;10.976;2023-03-23T09:23:34;101079.34;;;19.58;48.85
48200;BME280;33990;44.602;10.976;2023-03-23T09:26:01;101077.50;;;19.59;49.19
48200;BME280;33990;44.602;10.976;2023-03-23T09:28:28;101077.50;;;19.59;49.03
48200;BME280;33990;44.602;10.976;2023-03-23T09:30:55;101078.38;;;19.59;49.21
48200;BME280;33990;44.602;10.976;2023-03-23T09:33:24;101078.38;;;19.59;49.39
48200;BME280;33990;44.602;10.976;2023-03-23T09:35:50;101078.25;;;19.61;49.28
48200;BME280;33990;44.602;10.976;2023-03-23T09:38:16;101079.13;;;19.61;49.21
48200;BME280;33990;44.602;10.976;2023-03-23T09:43:24;101081.81;;;19.61;49.13
48200;BME280;33990;44.602;10.976;2023-03-23T09:48:49;101071.78;;;19.63;49.55
48200;BME280;33990;44.602;10.976;2023-03-23T09:51:42;101072.53;;;19.65;49.26
48200;BME280;33990;44.602;10.976;2023-03-23T09:54:22;101067.16;;;19.65;49.38
48200;BME280;33990;44.602;10.976;2023-03-23T09:56:50;101073.38;;;19.66;49.46
48200;BME280;33990;44.602;10.976;2023-03-23T09:59:40;101071.53;;;19.66;49.67
48200;BME280;33990;44.602;10.976;2023-03-23T10:02:20;101073.25;;;19.67;49.57
48200;BME280;33990;44.602;10.976;2023-03-23T10:04:51;101065.19;;;19.67;49.49
48200;BME280;33990;44.602;10.976;2023-03-23T10:07:21;101071.41;;;19.68;49.39
48200;BME280;33990;44.602;10.976;2023-03-23T10:09:53;101070.56;;;19.67;49.54
48200;BME280;33990;44.602;10.976;2023-03-23T10:17:59;101072.84;;;19.72;49.54
48200;BME280;33990;44.602;10.976;2023-03-23T10:20:30;101067.47;;;19.72;49.42
48200;BME280;33990;44.602;10.976;2023-03-23T10:25:42;101063.84;;;19.73;49.21
48200;BME280;33990;44.602;10.976;2023-03-23T10:28:12;101066.53;;;19.73;49.14
48200;BME280;33990;44.602;10.976;2023-03-23T10:30:56;101071.88;;;19.73;49.04
48200;BME280;33990;44.602;10.976;2023-03-23T10:33:36;101065.63;;;19.72;49.53
48200;BME280;33990;44.602;10.976;2023-03-23T10:36:14;101061.16;;;19.73;49.00
48200;BME280;33990;44.602;10.976;2023-03-23T10:38:45;101063.84;;;19.73;49.61
48200;BME280;33990;44.602;10.976;2023-03-23T10:41:16;101059.31;;;19.73;49.28
48200;BME280;33990;44.602;10.976;2023-03-23T10:43:44;101058.47;;;19.73;49.29
48200;BME280;33990;44.602;10.976;2023-03-23T10:48:54;101050.25;;;19.74;49.49
48200;BME280;33990;44.602;10.976;2023-03-23T10:51:31;101051.97;;;19.75;49.47
48200;BME280;33990;44.602;10.976;2023-03-23T10:54:01;101048.28;;;19.76;49.44
48200;BME280;33990;44.602;10.976;2023-03-23T10:59:18;101045.50;;;19.78;49.44
48200;BME280;33990;44.602;10.976;2023-03-23T11:01:47;101047.31;;;19.78;49.45
48200;BME280;33990;44.602;10.976;2023-03-23T11:04:16;101044.63;;;19.78;49.51
48200;BME280;33990;44.602;10.976;2023-03-23T11:06:45;101040.97;;;19.79;49.28
48200;BME280;33990;44.602;10.976;2023-03-23T11:09:17;101038.28;;;19.79;49.37
48200;BME280;33990;44.602;10.976;2023-03-23T11:11:53;101043.50;;;19.80;49.28
48200;BME280;33990;44.602;10.976;2023-03-23T11:14:29;101050.72;;;19.80;49.40
48200;BME280;33990;44.602;10.976;2023-03-23T11:17:00;101045.34;;;19.80;49.28
48200;BME280;33990;44.602;10.976;2023-03-23T11:19:33;101042.66;;;19.80;49.16
48200;BME280;33990;44.602;10.976;2023-03-23T11:24:41;101041.66;;;19.81;49.23
48200;BME280;33990;44.602;10.976;2023-03-23T11:27:09;101036.19;;;19.82;49.81
48200;BME280;33990;44.602;10.976;2023-03-23T11:30:00;101035.94;;;19.85;49.74
48200;BME280;33990;44.602;10.976;2023-03-23T11:32:29;101040.31;;;19.86;49.64
48200;BME280;33990;44.602;10.976;2023-03-23T11:35:00;101033.81;;;19.89;49.72
48200;BME280;33990;44.602;10.976;2023-03-23T11:37:35;101025.63;;;19.90;49.88
48200;BME280;33990;44.602;10.976;2023-03-23T11:42:43;101031.72;;;19.92;49.95
48200;BME280;33990;44.602;10.976;2023-03-23T11:50:21;101031.47;;;19.95;50.42
48200;BME280;33990;44.602;10.976;2023-03-23T11:56:01;101028.63;;;19.97;50.55
48200;BME280;33990;44.602;10.976;2023-03-23T11:58:31;101029.50;;;19.97;50.63
48200;BME280;33990;44.602;10.976;2023-03-23T12:01:05;101019.63;;;19.98;50.65
48200;BME280;33990;44.602;10.976;2023-03-23T12:12:35;100999.66;;;20.00;50.96
48200;BME280;33990;44.602;10.976;2023-03-23T12:15:18;100998.72;;;20.02;50.82
48200;BME280;33990;44.602;10.976;2023-03-23T12:17:54;101008.56;;;20.01;50.65
48200;BME280;33990;44.602;10.976;2023-03-23T12:20:53;101002.34;;;20.00;50.29
48200;BME280;33990;44.602;10.976;2023-03-23T12:26:21;101001.91;;;19.95;49.86
48200;BME280;33990;44.602;10.976;2023-03-23T12:28:59;100999.38;;;19.94;50.04
48200;BME280;33990;44.602;10.976;2023-03-23T12:31:44;101000.47;;;19.91;50.31
48200;BME280;33990;44.602;10.976;2023-03-23T12:35:20;100997.78;;;19.91;50.41
48200;BME280;33990;44.602;10.976;2023-03-23T12:40:16;100991.69;;;19.89;56.45
48200;BME280;33990;44.602;10.976;2023-03-23T12:45:50;100983.31;;;19.83;57.05
48200;BME280;33990;44.602;10.976;2023-03-23T12:48:33;100989.91;;;19.79;56.77
48200;BME280;33990;44.602;10.976;2023-03-23T12:56:58;100970.91;;;19.70;56.90
48200;BME280;33990;44.602;10.976;2023-03-23T13:02:11;100977.28;;;19.69;58.63
48200;BME280;33990;44.602;10.976;2023-03-23T13:04:43;100978.13;;;19.70;54.74
48200;BME280;33990;44.602;10.976;2023-03-23T13:07:16;100970.91;;;19.70;58.53
48200;BME280;33990;44.602;10.976;2023-03-23T13:12:31;100963.00;;;19.69;58.16
48200;BME280;33990;44.602;10.976;2023-03-23T13:17:45;100963.13;;;19.67;58.20
48200;BME280;33990;44.602;10.976;2023-03-23T13:20:37;100963.13;;;19.67;57.33
48200;BME280;33990;44.602;10.976;2023-03-23T13:23:20;100958.72;;;19.66;58.53
48200;BME280;33990;44.602;10.976;2023-03-23T13:25:55;100954.47;;;19.64;57.88
48200;BME280;33990;44.602;10.976;2023-03-23T13:28:28;100954.47;;;19.64;58.37
48200;BME280;33990;44.602;10.976;2023-03-23T13:33:53;100945.56;;;19.63;59.39
48200;BME280;33990;44.602;10.976;2023-03-23T13:36:37;100944.72;;;19.63;60.22
48200;BME280;33990;44.602;10.976;2023-03-23T13:39:20;100937.50;;;19.63;60.06
48200;BME280;33990;44.602;10.976;2023-03-23T13:45:05;100930.28;;;19.64;61.10
48200;BME280;33990;44.602;10.976;2023-03-23T13:47:40;100920.41;;;19.64;61.05
48200;BME280;33990;44.602;10.976;2023-03-23T13:50:24;100927.59;;;19.64;61.54
48200;BME280;33990;44.602;10.976;2023-03-23T13:52:54;100920.41;;;19.64;61.56
48200;BME280;33990;44.602;10.976;2023-03-23T13:55:39;100912.22;;;19.66;61.68
48200;BME280;33990;44.602;10.976;2023-03-23T14:00:36;100909.53;;;19.66;61.80
48200;BME280;33990;44.602;10.976;2023-03-23T14:05:42;100893.44;;;19.66;62.21
48200;BME280;33990;44.602;10.976;2023-03-23T14:10:52;100887.22;;;19.65;62.10
48200;BME280;33990;44.602;10.976;2023-03-23T14:13:36;100886.22;;;19.66;62.52
48200;BME280;33990;44.602;10.976;2023-03-23T14:16:20;100891.59;;;19.66;62.45
48200;BME280;33990;44.602;10.976;2023-03-23T14:18:59;100890.75;;;19.66;62.86
48200;BME280;33990;44.602;10.976;2023-03-23T14:24:10;100892.44;;;19.67;62.75
48200;BME280;33990;44.602;10.976;2023-03-23T14:26:37;100901.34;;;19.67;62.85
48200;BME280;33990;44.602;10.976;2023-03-23T14:29:05;100885.22;;;19.67;62.85
48200;BME280;33990;44.602;10.976;2023-03-23T14:31:32;100883.53;;;19.66;62.76
48200;BME280;33990;44.602;10.976;2023-03-23T14:34:02;100874.47;;;19.67;62.93
48200;BME280;33990;44.602;10.976;2023-03-23T14:36:30;100879.00;;;19.67;62.61
48200;BME280;33990;44.602;10.976;2023-03-23T14:41:52;100885.38;;;19.66;62.70
48200;BME280;33990;44.602;10.976;2023-03-23T14:44:24;100882.69;;;19.66;62.70
48200;BME280;33990;44.602;10.976;2023-03-23T14:46:53;100883.53;;;19.66;62.98
48200;BME280;33990;44.602;10.976;2023-03-23T14:49:29;100883.38;;;19.68;63.36
48200;BME280;33990;44.602;10.976;2023-03-23T14:51:56;100878.00;;;19.68;62.95
48200;BME280;33990;44.602;10.976;2023-03-23T14:54:25;100876.31;;;19.67;63.42